createdAt,value
2023-04-28T00:01:19.267Z,55.13
2023-04-28T00:03:47.019Z,54.81
2023-04-28T00:06:14.587Z,55.00
2023-04-28T00:08:42.076Z,55.12
2023-04-28T00:11:10.875Z,55.38
2023-04-28T00:13:38.455Z,55.19
2023-04-28T00:16:08.358Z,55.57
2023-04-28T00:18:35.827Z,55.66
2023-04-28T00:21:03.258Z,55.58
2023-04-28T00:23:30.733Z,55.98
2023-04-28T00:25:58.270Z,55.89
2023-04-28T00:30:56.227Z,55.99
2023-04-28T00:33:24.998Z,56.33
2023-04-28T00:36:00.027Z,56.42
2023-04-28T00:38:27.488Z,55.76
2023-04-28T00:40:54.929Z,55.54
2023-04-28T00:43:22.626Z,55.92
2023-04-28T00:45:50.247Z,56.45
2023-04-28T00:48:17.868Z,56.73
2023-04-28T00:50:47.633Z,57.04
2023-04-28T00:53:15.344Z,56.66
2023-04-28T00:55:42.828Z,56.45
2023-04-28T00:58:10.609Z,56.95
2023-04-28T01:00:38.026Z,56.72
2023-04-28T01:03:05.777Z,56.98
2023-04-28T01:05:34.045Z,56.50
2023-04-28T01:08:02.953Z,56.73
2023-04-28T01:10:30.711Z,56.71
2023-04-28T01:12:58.139Z,56.63
2023-04-28T01:15:25.588Z,56.41
2023-04-28T01:17:53.258Z,57.07
2023-04-28T01:20:20.979Z,56.61
2023-04-28T01:22:48.392Z,56.25
2023-04-28T01:25:17.180Z,56.80
2023-04-28T01:27:44.582Z,56.70
2023-04-28T01:30:12.503Z,56.53
2023-04-28T01:32:39.948Z,56.92
2023-04-28T01:35:07.816Z,57.86
2023-04-28T01:37:35.234Z,57.35
2023-04-28T01:40:02.683Z,57.62
2023-04-28T01:42:31.517Z,57.88
2023-04-28T01:44:58.935Z,58.51
2023-04-28T01:47:26.381Z,58.69
2023-04-28T01:49:53.815Z,59.41
2023-04-28T01:52:22.968Z,59.94
2023-04-28T01:54:50.409Z,59.66
2023-04-28T01:57:18.179Z,59.97
2023-04-28T01:59:48.211Z,60.77
2023-04-28T02:02:15.691Z,60.73
2023-04-28T02:04:43.185Z,62.94
2023-04-28T02:07:10.695Z,64.89
2023-04-28T02:09:38.164Z,63.73
2023-04-28T02:12:05.765Z,68.74
2023-04-28T02:14:33.210Z,71.88
2023-04-28T02:17:02.922Z,73.96
2023-04-28T02:19:30.570Z,73.11
2023-04-28T02:21:58.129Z,73.00
2023-04-28T02:24:25.644Z,71.31
2023-04-28T02:26:53.566Z,69.18
2023-04-28T02:29:21.239Z,68.77
2023-04-28T02:31:48.701Z,66.40
2023-04-28T02:34:17.603Z,65.63
2023-04-28T02:36:45.130Z,66.07
2023-04-28T02:39:12.735Z,66.49
2023-04-28T02:41:40.214Z,67.21
2023-04-28T02:44:07.669Z,67.91
2023-04-28T02:46:35.873Z,68.60
2023-04-28T02:49:03.620Z,69.38
2023-04-28T02:51:32.804Z,69.94
2023-04-28T02:54:00.261Z,69.99
2023-04-28T02:56:29.711Z,68.94
2023-04-28T02:58:57.235Z,68.56
2023-04-28T03:01:24.975Z,68.34
2023-04-28T03:03:52.626Z,68.56
2023-04-28T03:06:20.245Z,67.89
2023-04-28T03:08:49.045Z,68.17
2023-04-28T03:11:16.503Z,68.05
2023-04-28T03:13:43.947Z,68.26
2023-04-28T03:16:11.447Z,68.09
2023-04-28T03:18:38.942Z,69.27
2023-04-28T03:21:06.550Z,69.36
2023-04-28T03:23:33.982Z,69.76
2023-04-28T03:26:02.754Z,70.25
2023-04-28T03:28:30.259Z,70.34
2023-04-28T03:30:57.697Z,70.24
2023-04-28T03:33:25.489Z,71.70
2023-04-28T03:35:53.537Z,74.68
2023-04-28T03:38:21.090Z,73.82
2023-04-28T03:40:48.513Z,76.45
2023-04-28T03:43:17.287Z,78.53
2023-04-28T03:45:44.781Z,77.56
2023-04-28T03:48:12.371Z,77.78
2023-04-28T03:50:40.930Z,78.66
2023-04-28T03:53:08.563Z,78.71
2023-04-28T03:55:36.121Z,77.14
2023-04-28T03:58:03.647Z,77.03
2023-04-28T04:00:32.562Z,76.04
2023-04-28T04:03:00.271Z,76.62
2023-04-28T04:05:27.879Z,77.56
2023-04-28T04:07:55.326Z,78.56
2023-04-28T04:10:22.773Z,78.89
2023-04-28T04:12:50.218Z,78.49
2023-04-28T04:15:17.674Z,77.95
2023-04-28T04:17:46.552Z,79.19
2023-04-28T04:20:14.179Z,78.78
2023-04-28T04:22:41.821Z,81.14
2023-04-28T04:25:09.598Z,79.77
2023-04-28T04:27:37.150Z,77.47
2023-04-28T04:30:05.350Z,77.41
2023-04-28T04:32:32.907Z,79.81
2023-04-28T04:35:01.706Z,84.54
2023-04-28T04:37:29.429Z,85.04
2023-04-28T04:39:57.045Z,85.27
2023-04-28T04:42:25.954Z,84.00
2023-04-28T04:44:53.580Z,83.66
2023-04-28T04:47:21.028Z,85.19
2023-04-28T04:49:49.230Z,85.28
2023-04-28T04:52:18.057Z,83.88
2023-04-28T04:54:46.280Z,84.20
2023-04-28T04:57:13.982Z,82.81
2023-04-28T04:59:41.435Z,81.01
2023-04-28T05:02:08.950Z,81.12
2023-04-28T05:04:36.656Z,79.36
2023-04-28T05:07:04.156Z,79.93
2023-04-28T05:09:33.865Z,78.47
2023-04-28T05:12:01.650Z,79.16
2023-04-28T05:14:29.121Z,78.74
2023-04-28T05:16:56.927Z,79.06
2023-04-28T05:19:24.501Z,79.60
2023-04-28T05:21:53.803Z,79.69
2023-04-28T05:24:23.499Z,80.84
2023-04-28T05:26:53.918Z,81.28
2023-04-28T05:29:21.685Z,82.56
2023-04-28T05:31:49.194Z,81.26
2023-04-28T05:34:17.060Z,81.33
2023-04-28T05:36:45.499Z,81.00
2023-04-28T05:39:13.028Z,79.83
2023-04-28T05:41:40.626Z,80.44
2023-04-28T05:44:09.479Z,80.69
2023-04-28T05:46:37.557Z,80.81
2023-04-28T05:49:05.004Z,81.03
2023-04-28T05:51:33.607Z,83.71
2023-04-28T05:54:01.309Z,82.92
2023-04-28T05:56:28.829Z,82.87
2023-04-28T05:58:56.774Z,83.86
2023-04-28T06:01:28.237Z,83.32
2023-04-28T06:03:57.940Z,83.87
2023-04-28T06:06:26.010Z,84.76
2023-04-28T06:08:53.516Z,84.08
2023-04-28T06:11:22.376Z,85.02
2023-04-28T06:13:50.146Z,84.55
2023-04-28T06:16:17.820Z,83.92
2023-04-28T06:18:48.449Z,85.08
2023-04-28T06:21:17.589Z,84.69
2023-04-28T06:23:45.049Z,84.69
2023-04-28T06:26:12.504Z,86.09
2023-04-28T06:28:39.994Z,86.17
2023-04-28T06:31:07.497Z,86.88
2023-04-28T06:33:35.053Z,86.20
2023-04-28T06:36:04.672Z,88.22
2023-04-28T06:38:32.144Z,88.65
2023-04-28T06:40:59.600Z,88.28
2023-04-28T06:43:27.200Z,87.45
2023-04-28T06:45:54.692Z,87.40
2023-04-28T06:48:22.143Z,88.02
2023-04-28T06:50:49.589Z,88.30
2023-04-28T06:53:18.469Z,88.35
2023-04-28T06:55:45.895Z,89.00
2023-04-28T06:58:13.389Z,89.30
2023-04-28T07:00:40.956Z,90.10
2023-04-28T07:03:08.948Z,89.47
2023-04-28T07:05:36.807Z,88.83
2023-04-28T07:08:04.418Z,89.77
2023-04-28T07:10:33.281Z,89.67
2023-04-28T07:13:00.728Z,89.72
2023-04-28T07:15:28.567Z,89.89
2023-04-28T07:17:56.275Z,89.77
2023-04-28T07:20:23.764Z,90.49
2023-04-28T07:22:51.312Z,89.80
2023-04-28T07:25:18.827Z,90.01
2023-04-28T07:27:48.167Z,89.90
2023-04-28T07:30:26.493Z,90.61
2023-04-28T07:32:54.619Z,89.68
2023-04-28T07:35:22.638Z,90.39
2023-04-28T07:37:50.457Z,89.78
2023-04-28T07:40:18.454Z,90.22
2023-04-28T07:42:46.098Z,90.92
2023-04-28T07:45:15.793Z,90.34
2023-04-28T07:47:43.320Z,89.73
2023-04-28T07:50:12.528Z,90.33
2023-04-28T07:52:40.444Z,91.10
2023-04-28T07:55:08.338Z,92.10
2023-04-28T07:57:36.195Z,91.41
2023-04-28T08:00:03.967Z,89.63
2023-04-28T08:02:34.363Z,90.17
2023-04-28T08:05:02.414Z,89.68
2023-04-28T08:07:30.080Z,90.02
2023-04-28T08:09:57.554Z,90.75
2023-04-28T08:12:25.017Z,89.16
2023-04-28T08:14:52.466Z,88.86
2023-04-28T08:17:19.951Z,88.70
2023-04-28T08:19:48.793Z,87.91
2023-04-28T08:22:16.258Z,88.51
2023-04-28T08:24:43.744Z,88.10
2023-04-28T08:27:13.943Z,88.34
2023-04-28T08:29:41.428Z,88.40
2023-04-28T08:32:08.981Z,88.41
2023-04-28T08:34:36.480Z,86.97
2023-04-28T08:37:06.819Z,86.08
2023-04-28T08:39:35.283Z,87.54
2023-04-28T08:42:04.593Z,86.56
2023-04-28T08:44:35.901Z,87.02
2023-04-28T08:47:04.928Z,87.68
2023-04-28T08:49:36.073Z,87.60
2023-04-28T08:52:10.511Z,87.55
2023-04-28T08:54:39.482Z,87.44
2023-04-28T08:57:09.556Z,87.86
2023-04-28T08:59:40.191Z,88.83
2023-04-28T09:02:08.695Z,89.28
2023-04-28T09:04:36.353Z,88.61
2023-04-28T09:07:05.425Z,87.83
2023-04-28T09:09:35.727Z,88.39
2023-04-28T09:12:05.295Z,87.88
2023-04-28T09:14:34.323Z,88.09
2023-04-28T09:17:02.247Z,88.11
2023-04-28T09:19:34.330Z,88.77
2023-04-28T09:22:07.695Z,88.05
2023-04-28T09:24:43.460Z,87.09
2023-04-28T09:27:12.160Z,86.79
2023-04-28T09:29:41.030Z,87.32
2023-04-28T09:32:15.905Z,86.65
2023-04-28T09:34:45.488Z,85.70
2023-04-28T09:37:17.669Z,85.28
2023-04-28T09:39:47.243Z,84.68
2023-04-28T09:42:33.717Z,84.03
2023-04-28T09:45:02.881Z,83.71
2023-04-28T09:47:30.815Z,83.88
2023-04-28T09:49:59.994Z,84.59
2023-04-28T09:52:27.877Z,82.89
2023-04-28T09:54:58.308Z,81.52
2023-04-28T09:57:25.826Z,82.31
2023-04-28T09:59:54.452Z,82.65
2023-04-28T10:02:41.585Z,84.08
2023-04-28T10:05:11.533Z,86.18
2023-04-28T10:07:40.114Z,86.89
2023-04-28T10:10:09.734Z,88.29
2023-04-28T10:12:38.297Z,86.80
2023-04-28T10:15:07.487Z,87.04
2023-04-28T10:17:35.010Z,84.20
2023-04-28T10:20:03.484Z,84.05
2023-04-28T10:22:39.362Z,84.80
2023-04-28T10:25:25.652Z,88.31
2023-04-28T10:27:53.445Z,88.21
2023-04-28T10:30:28.132Z,86.57
2023-04-28T10:33:26.111Z,86.21
2023-04-28T10:35:53.941Z,84.70
2023-04-28T10:38:22.507Z,83.61
2023-04-28T10:40:52.449Z,84.04
2023-04-28T10:43:37.524Z,85.21
2023-04-28T10:46:09.408Z,80.91
2023-04-28T10:49:07.016Z,82.38
2023-04-28T10:51:35.492Z,80.41
2023-04-28T10:54:17.189Z,80.20
2023-04-28T10:57:19.075Z,81.51
2023-04-28T10:59:46.721Z,81.39
2023-04-28T11:02:44.694Z,83.24
2023-04-28T11:05:19.945Z,85.70
2023-04-28T11:08:29.780Z,83.41
2023-04-28T11:11:25.814Z,81.73
2023-04-28T11:13:55.873Z,82.88
2023-04-28T11:16:25.352Z,83.37
2023-04-28T11:18:55.856Z,81.98
2023-04-28T11:21:25.775Z,82.17
2023-04-28T11:23:53.426Z,82.40
2023-04-28T11:26:21.115Z,82.19
2023-04-28T11:28:50.928Z,81.39
2023-04-28T11:31:21.710Z,81.78
2023-04-28T11:33:52.565Z,80.24
2023-04-28T11:36:27.957Z,80.03
2023-04-28T11:38:56.052Z,79.02
2023-04-28T11:41:23.909Z,77.49
2023-04-28T11:43:51.795Z,77.35
2023-04-28T11:46:22.158Z,76.28
2023-04-28T11:48:51.204Z,77.13
2023-04-28T11:51:46.872Z,77.30
2023-04-28T11:54:14.989Z,76.77
2023-04-28T11:56:44.789Z,76.93
2023-04-28T11:59:13.706Z,75.44
2023-04-28T12:01:52.259Z,77.83
2023-04-28T12:04:30.088Z,78.28
2023-04-28T12:07:05.114Z,79.33
2023-04-28T12:09:33.622Z,78.29
2023-04-28T12:12:02.834Z,75.39
2023-04-28T12:14:31.946Z,75.53
2023-04-28T12:17:01.158Z,75.41
2023-04-28T12:19:28.745Z,75.90
2023-04-28T12:22:03.936Z,74.17
2023-04-28T12:24:31.551Z,75.40
2023-04-28T12:27:18.571Z,74.32
2023-04-28T12:29:47.268Z,74.91
2023-04-28T12:32:16.385Z,73.87
2023-04-28T12:34:45.968Z,74.69
2023-04-28T12:37:14.106Z,74.90
2023-04-28T12:39:42.398Z,74.94
2023-04-28T12:42:10.157Z,75.16
2023-04-28T12:44:38.451Z,76.53
2023-04-28T12:47:07.297Z,76.32
2023-04-28T12:49:36.471Z,76.58
2023-04-28T12:52:04.482Z,75.54
2023-04-28T12:54:32.171Z,73.91
2023-04-28T12:56:59.667Z,73.92
2023-04-28T12:59:27.288Z,73.17
2023-04-28T13:01:55.375Z,74.64
2023-04-28T13:04:23.081Z,72.90
2023-04-28T13:06:52.684Z,73.41
2023-04-28T13:09:20.625Z,74.64
2023-04-28T13:11:48.108Z,73.46
2023-04-28T13:14:15.569Z,72.19
2023-04-28T13:16:43.076Z,71.94
2023-04-28T13:19:13.636Z,71.20
2023-04-28T13:21:41.858Z,70.56
2023-04-28T13:24:11.210Z,71.00
2023-04-28T13:26:38.715Z,71.34
2023-04-28T13:29:08.126Z,72.25
2023-04-28T13:31:35.657Z,72.46
2023-04-28T13:34:04.116Z,71.92
2023-04-28T13:36:32.557Z,71.84
2023-04-28T13:39:01.687Z,72.15
2023-04-28T13:41:31.234Z,73.86
2023-04-28T13:43:58.782Z,75.00
2023-04-28T13:46:26.338Z,75.24
2023-04-28T13:48:54.035Z,76.25
2023-04-28T13:51:21.477Z,76.49
2023-04-28T13:53:48.906Z,75.48
2023-04-28T13:56:16.376Z,76.00
2023-04-28T13:58:45.155Z,76.39
2023-04-28T14:01:12.729Z,77.83
2023-04-28T14:03:40.577Z,80.26
2023-04-28T14:06:08.249Z,82.66
2023-04-28T14:08:36.606Z,84.61
2023-04-28T14:11:04.137Z,84.09
2023-04-28T14:13:31.607Z,85.83
2023-04-28T14:16:00.595Z,89.38
2023-04-28T14:18:28.119Z,87.71
2023-04-28T14:20:55.676Z,87.16
2023-04-28T14:23:23.330Z,87.78
2023-04-28T14:25:51.732Z,86.44
2023-04-28T14:28:21.436Z,86.68
2023-04-28T14:30:49.982Z,85.70
2023-04-28T14:33:18.895Z,86.47
2023-04-28T14:35:46.364Z,87.27
2023-04-28T14:38:13.969Z,85.85
2023-04-28T14:40:42.782Z,85.76
2023-04-28T14:43:10.244Z,84.32
2023-04-28T14:45:38.080Z,84.95
2023-04-28T14:48:06.819Z,84.54
2023-04-28T14:50:35.867Z,84.65
2023-04-28T14:53:06.775Z,84.30
2023-04-28T14:55:34.458Z,84.83
2023-04-28T14:58:02.854Z,82.94
2023-04-28T15:00:30.742Z,84.00
2023-04-28T15:02:58.492Z,83.96
2023-04-28T15:05:26.058Z,82.34
2023-04-28T15:07:54.888Z,82.50
2023-04-28T15:10:22.343Z,83.29
2023-04-28T15:12:49.802Z,82.17
2023-04-28T15:15:17.254Z,82.64
2023-04-28T15:17:45.322Z,81.45
2023-04-28T15:20:12.987Z,81.26
2023-04-28T15:22:40.972Z,80.66
2023-04-28T15:25:10.263Z,80.46
2023-04-28T15:27:37.935Z,81.29
2023-04-28T15:30:06.381Z,79.95
2023-04-28T15:32:33.863Z,80.09
2023-04-28T15:35:01.571Z,79.85
2023-04-28T15:37:40.733Z,80.49
2023-04-28T15:40:11.377Z,81.38
2023-04-28T15:42:41.798Z,81.76
2023-04-28T15:45:10.861Z,80.55
2023-04-28T15:47:39.050Z,81.18
2023-04-28T15:50:08.960Z,82.21
2023-04-28T15:52:39.268Z,83.89
2023-04-28T15:55:07.990Z,83.30
2023-04-28T15:57:37.495Z,82.62
2023-04-28T16:00:06.720Z,81.80
2023-04-28T16:02:34.412Z,81.47
2023-04-28T16:05:02.515Z,82.88
2023-04-28T16:07:30.757Z,83.71
2023-04-28T16:09:58.769Z,84.59
2023-04-28T16:12:26.376Z,84.40
2023-04-28T16:14:55.891Z,83.56
2023-04-28T16:17:23.573Z,84.80
2023-04-28T16:19:51.046Z,84.37
2023-04-28T16:22:18.545Z,84.03
2023-04-28T16:24:46.341Z,84.36
2023-04-28T16:27:14.199Z,84.23
2023-04-28T16:29:41.686Z,84.15
2023-04-28T16:32:10.627Z,83.89
2023-04-28T16:34:38.155Z,84.37
2023-04-28T16:37:06.874Z,83.51
2023-04-28T16:39:34.625Z,84.00
2023-04-28T16:42:03.685Z,84.29
2023-04-28T16:44:31.514Z,84.91
2023-04-28T16:46:59.384Z,86.10
2023-04-28T16:49:28.296Z,87.10
2023-04-28T16:51:57.535Z,84.75
2023-04-28T16:54:25.289Z,83.70
2023-04-28T16:56:52.865Z,83.02
2023-04-28T16:59:20.460Z,84.99
2023-04-28T17:01:48.171Z,85.03
2023-04-28T17:04:16.780Z,85.44
2023-04-28T17:06:46.359Z,87.50
2023-04-28T17:09:13.928Z,87.65
2023-04-28T17:11:41.363Z,86.88
2023-04-28T17:14:08.816Z,87.99
2023-04-28T17:16:36.996Z,87.30
2023-04-28T17:19:05.427Z,87.05
2023-04-28T17:21:33.642Z,86.52
2023-04-28T17:24:02.742Z,85.87
2023-04-28T17:26:31.210Z,85.08
2023-04-28T17:28:59.838Z,84.51
2023-04-28T17:31:27.499Z,83.11
2023-04-28T17:33:57.486Z,82.23
2023-04-28T17:36:25.916Z,83.12
2023-04-28T17:38:53.616Z,84.55
2023-04-28T17:41:22.771Z,84.39
2023-04-28T17:43:51.401Z,84.07
2023-04-28T17:46:19.025Z,84.23
2023-04-28T17:48:46.712Z,85.08
2023-04-28T17:51:14.209Z,84.92
2023-04-28T17:53:42.451Z,85.12
2023-04-28T17:56:09.951Z,84.56
2023-04-28T17:58:38.768Z,84.97
2023-04-28T18:01:07.731Z,85.07
2023-04-28T18:03:35.913Z,86.27
2023-04-28T18:06:04.724Z,86.25
2023-04-28T18:08:32.181Z,86.23
2023-04-28T18:11:00.530Z,86.28
2023-04-28T18:13:28.058Z,86.59
2023-04-28T18:15:56.879Z,87.07
2023-04-28T18:18:24.387Z,87.21
2023-04-28T18:20:57.910Z,87.02
2023-04-28T18:23:25.986Z,86.40
2023-04-28T18:25:53.446Z,86.07
2023-04-28T18:28:21.080Z,86.54
2023-04-28T18:30:47.524Z,86.40
2023-04-28T18:33:19.498Z,86.42
2023-04-28T18:35:48.824Z,86.72
2023-04-28T18:38:16.611Z,86.49
2023-04-28T18:40:44.043Z,86.17
2023-04-28T18:43:11.699Z,86.58
2023-04-28T18:45:41.196Z,86.68
2023-04-28T18:48:10.177Z,87.63
2023-04-28T18:50:39.271Z,87.78
2023-04-28T18:53:08.753Z,88.24
2023-04-28T18:55:36.875Z,88.26
2023-04-28T18:58:04.567Z,88.44
2023-04-28T19:00:32.649Z,88.77
2023-04-28T19:03:00.438Z,89.15
2023-04-28T19:05:28.087Z,89.67
2023-04-28T19:07:56.856Z,89.36
2023-04-28T19:10:24.312Z,89.00
2023-04-28T19:12:51.751Z,88.96
2023-04-28T19:15:19.290Z,89.26
2023-04-28T19:17:46.829Z,90.23
2023-04-28T19:20:14.400Z,89.49
2023-04-28T19:22:42.114Z,89.87
2023-04-28T19:25:11.289Z,90.08
2023-04-28T19:27:40.378Z,90.20
2023-04-28T19:30:10.900Z,90.28
2023-04-28T19:32:38.760Z,90.22
2023-04-28T19:35:07.958Z,90.15
2023-04-28T19:37:35.938Z,89.71
2023-04-28T19:40:05.618Z,89.70
2023-04-28T19:42:35.285Z,89.56
2023-04-28T19:45:03.747Z,90.98
2023-04-28T19:47:33.707Z,90.24
2023-04-28T19:50:01.330Z,90.09
2023-04-28T19:52:29.009Z,90.02
2023-04-28T19:54:57.167Z,90.51
2023-04-28T19:57:24.721Z,89.49
2023-04-28T19:59:53.614Z,90.58
2023-04-28T20:02:21.530Z,92.99
2023-04-28T20:04:49.728Z,93.00
2023-04-28T20:07:17.230Z,92.16
2023-04-28T20:09:45.464Z,93.96
2023-04-28T20:12:13.274Z,94.58
2023-04-28T20:14:40.738Z,93.45
2023-04-28T20:17:09.940Z,93.56
2023-04-28T20:19:37.658Z,93.32
2023-04-28T20:22:08.337Z,93.43
2023-04-28T20:24:36.926Z,93.22
2023-04-28T20:27:04.678Z,93.00
2023-04-28T20:29:34.724Z,93.20
2023-04-28T20:32:03.186Z,93.23
2023-04-28T20:34:32.128Z,93.48
2023-04-28T20:37:03.458Z,92.87
2023-04-28T20:39:30.986Z,93.52
2023-04-28T20:41:59.322Z,94.21
2023-04-28T20:44:26.824Z,94.47
2023-04-28T20:46:55.190Z,93.66
2023-04-28T20:49:22.726Z,94.30
2023-04-28T20:51:51.514Z,94.59
2023-04-28T20:54:19.007Z,94.31
2023-04-28T20:56:46.607Z,93.84
2023-04-28T20:59:14.055Z,94.21
2023-04-28T21:01:41.933Z,93.91
2023-04-28T21:04:09.579Z,93.69
2023-04-28T21:06:37.283Z,93.37
2023-04-28T21:09:06.112Z,93.22
2023-04-28T21:11:33.673Z,92.77
2023-04-28T21:14:01.115Z,92.29
2023-04-28T21:16:28.582Z,92.83
2023-04-28T21:18:56.583Z,92.91
2023-04-28T21:21:24.032Z,92.82
2023-04-28T21:23:51.468Z,92.87
2023-04-28T21:26:21.809Z,92.86
2023-04-28T21:28:50.140Z,94.04
2023-04-28T21:31:17.579Z,93.81
2023-04-28T21:33:45.000Z,93.32
2023-04-28T21:36:12.495Z,94.53
2023-04-28T21:38:39.969Z,94.56
2023-04-28T21:41:08.660Z,94.72
2023-04-28T21:43:37.509Z,93.16
2023-04-28T21:46:05.088Z,93.66
2023-04-28T21:48:32.769Z,93.19
2023-04-28T21:51:01.101Z,93.92
2023-04-28T21:53:28.627Z,93.55
2023-04-28T21:55:56.132Z,93.98
2023-04-28T21:58:23.736Z,94.18
2023-04-28T22:00:52.853Z,93.88
2023-04-28T22:03:20.512Z,93.69
2023-04-28T22:05:48.266Z,93.58
2023-04-28T22:08:16.865Z,93.57
2023-04-28T22:10:45.384Z,93.67
2023-04-28T22:13:12.866Z,93.98
2023-04-28T22:15:41.620Z,93.78
2023-04-28T22:18:10.451Z,94.42
2023-04-28T22:20:38.321Z,94.13
2023-04-28T22:23:05.968Z,95.08
2023-04-28T22:25:33.460Z,95.18
2023-04-28T22:28:00.903Z,94.99
2023-04-28T22:30:28.467Z,95.18
2023-04-28T22:32:55.959Z,94.30
2023-04-28T22:35:24.847Z,94.75
2023-04-28T22:37:52.413Z,95.52
2023-04-28T22:40:19.982Z,95.38
2023-04-28T22:42:47.452Z,94.79
2023-04-28T22:45:14.971Z,95.23
2023-04-28T22:47:42.807Z,95.24
2023-04-28T22:50:10.886Z,95.31
2023-04-28T22:52:40.005Z,95.87
2023-04-28T22:55:08.308Z,96.33
2023-04-28T22:57:36.349Z,96.14
2023-04-28T23:00:04.138Z,96.88
2023-04-28T23:02:31.775Z,97.26
2023-04-28T23:04:59.836Z,97.87
2023-04-28T23:07:27.355Z,97.37
2023-04-28T23:09:56.145Z,97.20
2023-04-28T23:12:23.652Z,97.60
2023-04-28T23:14:51.105Z,96.75
2023-04-28T23:17:18.664Z,96.46
2023-04-28T23:19:46.141Z,95.84
2023-04-28T23:22:13.634Z,96.99
2023-04-28T23:24:42.253Z,97.46
2023-04-28T23:27:11.072Z,96.21
2023-04-28T23:29:38.519Z,97.59
2023-04-28T23:32:06.705Z,97.24
2023-04-28T23:34:34.229Z,98.36
2023-04-28T23:37:01.664Z,99.05
2023-04-28T23:39:30.005Z,98.81
2023-04-28T23:41:58.534Z,99.21
2023-04-28T23:44:27.478Z,99.08
2023-04-28T23:46:56.117Z,99.22
2023-04-28T23:49:23.904Z,99.21
2023-04-28T23:51:51.356Z,99.39
2023-04-28T23:54:18.801Z,100.00
2023-04-28T23:56:46.279Z,100.00
2023-04-28T23:59:13.782Z,99.69
